Huntington Beach, California
Current Conditions -  °F | °C
As of 1:53 PM on Wednesday 28 Jan 2015 (Local Time) from KSNA Reporting Station
Broken Clouds Broken Clouds  
Wind Chill: 74°   Ceiling: 30000
Heat Index: 74°   Visibility: 10mi
Dew Point: 49°   Wind: 5mph
Humidity: 41%   Direction: 240°WSW
Pressure: 30.07"   Gusts: NA
Location:  33.68°N, 118°W
Report Text: KSNA 282153Z 24004KT 10SM SCT200 BKN300 23/09 A3007 RMK AO2 SLP180 T02330094
Loading
Personal Weather Stations






























Interactive Weather Map New forecast layout! Learn more

10-Day Weather Forecast

Advertisements
Track Severe Weather on mobile